Time;durP1;ratioP1;P1;durP2;ratioP2;P2;SDS_P1;SDS_P2;PMS_P1;PMS_P2;Temp;Humidity;BMP_temperature;BMP_pressure;BME280_temperature;BME280_humidity;BME280_pressure;Samples;Min_cycle;Max_cycle;Signal;HPM_P1;HPM_P2
2022/07/21 00:01:45;;;;;;;7.63;2.65;;;21.50;99.90;;;;;;5021719;28;20034;-73
2022/07/21 00:04:11;;;;;;;6.68;2.00;;;21.50;99.90;;;;;;5022090;28;20065;-72
2022/07/21 00:06:37;;;;;;;5.03;1.85;;;21.50;99.90;;;;;;5021673;28;20018;-74
2022/07/21 05:11:52;;;;;;;4.22;2.40;;;19.60;99.90;;;;;;5026383;23;20055;-71
2022/07/21 05:14:20;;;;;;;5.95;2.78;;;19.50;99.90;;;;;;4968136;28;20094;-72
2022/07/21 05:16:45;;;;;;;6.07;2.70;;;19.40;99.90;;;;;;4971723;28;20490;-70
2022/07/21 05:19:11;;;;;;;3.72;2.78;;;19.40;99.90;;;;;;4971950;28;20023;-72
2022/07/21 05:21:37;;;;;;;6.35;2.95;;;19.40;99.90;;;;;;4971545;28;20023;-72
2022/07/21 05:24:03;;;;;;;7.15;4.05;;;19.40;99.90;;;;;;4973098;28;20046;-71
2022/07/21 05:26:28;;;;;;;7.38;3.38;;;19.40;99.90;;;;;;4972605;28;20024;-70
2022/07/21 05:28:54;;;;;;;4.43;2.85;;;19.40;99.90;;;;;;4972766;28;20375;-72
2022/07/21 05:31:19;;;;;;;6.80;3.05;;;19.40;99.90;;;;;;4972594;28;20029;-72
2022/07/21 05:33:45;;;;;;;7.57;3.03;;;19.40;99.90;;;;;;4974171;28;20114;-74
2022/07/21 05:36:10;;;;;;;4.63;3.33;;;19.50;99.90;;;;;;4973589;28;20043;-74
2022/07/21 05:38:36;;;;;;;8.48;3.80;;;19.50;99.90;;;;;;4973234;28;20031;-70
2022/07/21 05:41:04;;;;;;;7.85;3.80;;;19.50;99.90;;;;;;4972295;28;20062;-72
2022/07/21 05:43:30;;;;;;;6.35;3.55;;;19.60;99.90;;;;;;4971349;28;20042;-70
2022/07/21 05:45:57;;;;;;;11.18;4.90;;;19.70;99.90;;;;;;4973438;28;20019;-71
2022/07/21 05:48:23;;;;;;;7.07;3.75;;;19.80;99.90;;;;;;4973151;28;20391;-71
2022/07/21 05:50:48;;;;;;;5.68;3.40;;;19.80;99.90;;;;;;4971690;28;20034;-71
2022/07/21 05:53:14;;;;;;;7.82;4.28;;;19.90;99.90;;;;;;4972241;28;20023;-72
2022/07/21 05:55:39;;;;;;;8.70;3.75;;;20.00;99.90;;;;;;4972767;28;20038;-70
2022/07/21 05:58:05;;;;;;;5.60;3.78;;;20.00;99.90;;;;;;4976179;28;20517;-72
2022/07/21 06:00:30;;;;;;;12.45;3.88;;;20.00;99.90;;;;;;4976152;28;20031;-70
2022/07/21 06:02:56;;;;;;;9.45;4.00;;;20.00;99.90;;;;;;4958356;28;20033;-69
2022/07/21 06:05:22;;;;;;;5.70;3.65;;;20.00;99.90;;;;;;4975891;28;20423;-70
2022/07/21 06:07:48;;;;;;;9.63;3.00;;;20.10;99.90;;;;;;4976798;28;20074;-70
2022/07/21 06:10:14;;;;;;;5.97;3.65;;;20.10;99.90;;;;;;4976208;28;20031;-71
2022/07/21 06:12:40;;;;;;;4.78;3.55;;;20.10;99.90;;;;;;4975473;28;20070;-70
2022/07/21 06:15:07;;;;;;;5.93;3.42;;;20.10;99.90;;;;;;4975905;28;20482;-71
2022/07/21 06:17:39;;;;;;;6.57;3.72;;;20.10;99.90;;;;;;4976304;28;20094;-71
2022/07/21 06:20:07;;;;;;;6.05;3.47;;;20.10;99.90;;;;;;4976082;28;20031;-70
2022/07/21 06:22:32;;;;;;;5.05;3.42;;;20.10;99.90;;;;;;4976012;28;20082;-70
2022/07/21 06:24:58;;;;;;;7.72;3.35;;;20.10;99.90;;;;;;4975419;28;21042;-71
2022/07/21 06:27:23;;;;;;;11.00;4.30;;;20.00;99.90;;;;;;4976209;28;20023;-72
2022/07/21 06:29:49;;;;;;;8.48;3.70;;;20.00;99.90;;;;;;4975507;28;20023;-70
2022/07/21 06:32:14;;;;;;;9.45;4.32;;;20.00;99.90;;;;;;4974828;28;20067;-70
2022/07/21 06:34:43;;;;;;;8.77;3.83;;;20.00;99.90;;;;;;4974902;28;20049;-70
2022/07/21 06:37:08;;;;;;;8.52;4.47;;;20.00;99.90;;;;;;4974335;28;20062;-70
2022/07/21 06:39:39;;;;;;;9.93;4.05;;;20.00;99.90;;;;;;4974370;28;20024;-70
2022/07/21 06:42:05;;;;;;;8.65;3.10;;;20.00;99.90;;;;;;4956145;28;20098;-72
2022/07/21 06:44:31;;;;;;;8.10;3.53;;;19.90;99.90;;;;;;4974962;28;20038;-73
2022/07/21 06:46:57;;;;;;;6.53;3.63;;;19.80;99.90;;;;;;4975483;28;20147;-70
2022/07/21 06:49:23;;;;;;;5.57;3.53;;;19.70;99.90;;;;;;4958363;28;20050;-69
2022/07/21 06:51:48;;;;;;;6.75;3.83;;;19.80;99.90;;;;;;4975278;28;20037;-71
2022/07/21 06:54:14;;;;;;;6.15;3.67;;;19.70;99.90;;;;;;4975415;28;21160;-73
2022/07/21 06:56:39;;;;;;;7.07;3.63;;;19.70;99.90;;;;;;4974617;28;20031;-72
2022/07/21 06:59:05;;;;;;;9.48;3.95;;;19.70;99.90;;;;;;4956514;28;20024;-70
2022/07/21 07:01:31;;;;;;;9.50;4.18;;;19.70;99.90;;;;;;4973861;28;20042;-70
2022/07/21 07:03:57;;;;;;;7.63;4.30;;;19.80;99.90;;;;;;4974481;28;20058;-70
2022/07/21 07:06:23;;;;;;;6.93;3.63;;;19.70;99.90;;;;;;4974076;28;20038;-68
2022/07/21 07:08:48;;;;;;;6.05;4.22;;;19.70;99.90;;;;;;4974273;28;20019;-70
2022/07/21 07:11:14;;;;;;;10.48;4.05;;;19.70;99.90;;;;;;4975297;28;20128;-71
2022/07/21 07:13:40;;;;;;;8.93;4.53;;;19.70;99.90;;;;;;4974641;28;20055;-71
2022/07/21 07:16:06;;;;;;;18.77;4.85;;;19.80;99.90;;;;;;4974946;28;20396;-71
2022/07/21 07:18:32;;;;;;;9.38;4.68;;;19.80;99.90;;;;;;4975058;28;20088;-69
2022/07/21 07:20:57;;;;;;;13.32;5.18;;;19.70;99.90;;;;;;4975429;28;20031;-68
2022/07/21 07:23:23;;;;;;;7.78;4.85;;;19.70;99.90;;;;;;4975554;28;20051;-72
2022/07/21 07:25:50;;;;;;;7.78;4.28;;;19.70;99.90;;;;;;4975005;28;20023;-70
2022/07/21 07:28:16;;;;;;;11.95;5.65;;;19.70;99.90;;;;;;4974542;28;20470;-71
2022/07/21 07:30:42;;;;;;;12.43;5.78;;;19.70;99.90;;;;;;4973276;28;20027;-71
2022/07/21 07:33:09;;;;;;;20.77;6.45;;;19.70;99.90;;;;;;4974152;28;20116;-74
2022/07/21 07:35:35;;;;;;;12.70;5.05;;;19.70;99.90;;;;;;4974903;28;20053;-72
2022/07/21 07:38:00;;;;;;;13.85;6.32;;;19.70;99.90;;;;;;4973711;28;20031;-72
2022/07/21 07:40:26;;;;;;;11.27;6.40;;;19.70;99.90;;;;;;4956219;28;20054;-71
2022/07/21 07:42:52;;;;;;;14.60;7.07;;;19.60;99.90;;;;;;4974479;28;20079;-71
2022/07/21 07:45:18;;;;;;;12.13;5.55;;;19.70;99.90;;;;;;4973406;28;20027;-71
2022/07/21 07:47:44;;;;;;;8.40;5.50;;;19.70;99.90;;;;;;4972800;28;20086;-69
2022/07/21 07:50:13;;;;;;;25.27;6.72;;;19.70;99.90;;;;;;4973660;28;20094;-71
2022/07/21 07:52:41;;;;;;;17.23;6.55;;;19.60;99.90;;;;;;4973628;28;20081;-70
2022/07/21 07:55:10;;;;;;;13.32;6.93;;;19.70;99.90;;;;;;4973220;28;20039;-73
2022/07/21 07:57:36;;;;;;;14.82;6.60;;;19.70;99.90;;;;;;4973028;28;20023;-72
2022/07/21 08:00:09;;;;;;;11.50;7.43;;;19.70;99.90;;;;;;4973316;28;20105;-73
2022/07/21 08:02:35;;;;;;;13.85;5.80;;;19.70;99.90;;;;;;4972728;28;20038;-72
2022/07/21 08:05:00;;;;;;;13.00;6.90;;;19.70;99.90;;;;;;4973738;28;20027;-72
2022/07/21 08:07:26;;;;;;;11.75;6.60;;;19.80;99.90;;;;;;4973201;28;20034;-71
2022/07/21 08:09:51;;;;;;;11.80;7.53;;;19.90;99.90;;;;;;4973465;28;20122;-72
2022/07/21 08:12:17;;;;;;;12.55;6.97;;;19.90;99.90;;;;;;4973058;28;20039;-70
2022/07/21 08:14:43;;;;;;;13.45;6.45;;;19.90;99.90;;;;;;4973310;28;20051;-72
2022/07/21 08:17:08;;;;;;;13.48;7.07;;;19.90;99.90;;;;;;4973385;28;20026;-71
2022/07/21 08:19:34;;;;;;;8.27;5.38;;;19.80;99.90;;;;;;4973647;28;20041;-72
2022/07/21 08:22:01;;;;;;;9.88;5.28;;;19.80;99.90;;;;;;4973595;28;20035;-71
2022/07/21 08:24:26;;;;;;;10.05;6.28;;;19.80;99.90;;;;;;4973447;28;20102;-71
2022/07/21 08:26:52;;;;;;;17.98;6.57;;;19.80;99.90;;;;;;4973088;28;20031;-70
2022/07/21 08:29:18;;;;;;;14.80;6.53;;;19.90;99.90;;;;;;4973533;28;20045;-71
2022/07/21 08:31:44;;;;;;;14.48;6.88;;;19.90;99.90;;;;;;4972692;28;20023;-71
2022/07/21 08:34:10;;;;;;;10.43;6.32;;;19.90;99.90;;;;;;4955600;28;20019;-72
2022/07/21 08:36:35;;;;;;;9.60;4.95;;;19.90;99.90;;;;;;4973117;28;20023;-70
2022/07/21 08:39:01;;;;;;;6.80;4.15;;;19.90;99.90;;;;;;4973333;28;20041;-70
2022/07/21 08:41:27;;;;;;;8.10;4.95;;;19.80;99.90;;;;;;4972901;28;20591;-73
2022/07/21 08:43:53;;;;;;;6.80;3.75;;;19.80;99.90;;;;;;4972932;28;20771;-71
2022/07/21 08:46:22;;;;;;;5.70;4.00;;;19.70;99.90;;;;;;4974302;28;20031;-70
2022/07/21 08:48:50;;;;;;;7.60;4.03;;;19.70;99.90;;;;;;4975292;28;20030;-72
2022/07/21 08:51:16;;;;;;;5.80;3.65;;;19.80;99.90;;;;;;4973837;28;20037;-70
2022/07/21 08:53:46;;;;;;;8.85;3.58;;;19.80;99.90;;;;;;4973849;28;20039;-72
2022/07/21 08:56:12;;;;;;;5.65;3.15;;;19.90;99.90;;;;;;4974823;28;20063;-70
2022/07/21 08:58:39;;;;;;;4.40;2.75;;;20.00;99.90;;;;;;4974276;28;20030;-72
2022/07/21 09:01:05;;;;;;;5.05;2.47;;;20.00;99.90;;;;;;4973922;28;20031;-72
2022/07/21 09:03:32;;;;;;;13.93;2.97;;;20.10;99.90;;;;;;4973634;28;20027;-71
2022/07/21 09:06:11;;;;;;;6.65;2.72;;;20.10;99.90;;;;;;4955203;28;20417;-70
2022/07/21 09:08:49;;;;;;;4.53;2.70;;;20.00;99.90;;;;;;4972603;28;20051;-72
2022/07/21 09:11:21;;;;;;;4.32;2.28;;;19.90;99.90;;;;;;4972187;28;20024;-70
2022/07/21 09:14:03;;;;;;;8.65;3.15;;;19.90;99.90;;;;;;4972908;28;20031;-70
2022/07/21 09:16:46;;;;;;;6.05;3.33;;;19.80;99.90;;;;;;4972247;28;20081;-70
2022/07/21 09:19:18;;;;;;;6.00;2.85;;;19.70;99.90;;;;;;4972785;28;20050;-70
2022/07/21 09:21:44;;;;;;;5.78;3.00;;;19.60;99.90;;;;;;4973561;28;20035;-70
2022/07/21 09:24:15;;;;;;;6.60;3.47;;;19.60;99.90;;;;;;4973587;28;20020;-69
2022/07/21 09:27:02;;;;;;;6.50;3.80;;;19.50;99.90;;;;;;4974081;28;20029;-67
2022/07/21 09:29:41;;;;;;;7.97;4.30;;;19.50;99.90;;;;;;4973941;28;20415;-66
2022/07/21 09:32:19;;;;;;;8.15;4.28;;;19.50;99.90;;;;;;4974208;28;20030;-69
2022/07/21 09:34:48;;;;;;;7.07;4.90;;;19.50;99.90;;;;;;4978041;28;20062;-69
2022/07/21 09:37:15;;;;;;;9.40;5.25;;;19.60;99.90;;;;;;4976951;28;20117;-69
2022/07/21 09:39:54;;;;;;;11.55;5.60;;;19.60;99.90;;;;;;4977056;28;20030;-68
2022/07/21 09:42:27;;;;;;;9.43;6.03;;;19.70;99.90;;;;;;4976742;28;20027;-69
2022/07/21 09:44:58;;;;;;;10.75;6.22;;;19.70;99.90;;;;;;4976933;28;20027;-69
2022/07/21 09:47:27;;;;;;;8.63;5.05;;;19.70;99.90;;;;;;4975955;28;20082;-68
2022/07/21 09:49:54;;;;;;;6.90;4.80;;;19.80;99.90;;;;;;4959279;28;20402;-68
2022/07/21 09:52:24;;;;;;;8.10;5.57;;;19.80;99.90;;;;;;4976727;28;20042;-66
2022/07/21 09:54:51;;;;;;;8.75;5.15;;;19.80;99.90;;;;;;4976422;28;20043;-66
2022/07/21 09:57:17;;;;;;;9.50;5.30;;;19.90;99.90;;;;;;4977000;28;20029;-68
2022/07/21 09:59:44;;;;;;;8.15;5.30;;;20.00;99.90;;;;;;4976259;28;20027;-67
2022/07/21 10:02:24;;;;;;;6.30;3.65;;;20.00;99.90;;;;;;4976109;28;20031;-69
2022/07/21 10:04:57;;;;;;;10.73;4.32;;;20.10;99.90;;;;;;4977113;28;20031;-67
2022/07/21 10:07:23;;;;;;;7.03;4.28;;;20.20;99.90;;;;;;4975775;28;20038;-68
2022/07/21 10:09:49;;;;;;;6.10;3.75;;;20.20;99.90;;;;;;4975936;28;20031;-68
2022/07/21 10:12:16;;;;;;;5.00;3.25;;;20.30;99.90;;;;;;4975863;28;20043;-69
2022/07/21 10:14:43;;;;;;;9.27;3.92;;;20.30;99.90;;;;;;4975298;28;20043;-70
2022/07/21 10:17:09;;;;;;;5.32;3.35;;;20.30;99.90;;;;;;4977610;28;20054;-71
2022/07/21 10:20:02;;;;;;;7.78;4.07;;;20.30;99.90;;;;;;4976133;28;20030;-69
2022/07/21 10:22:39;;;;;;;8.95;4.63;;;20.40;99.90;;;;;;4975637;28;20031;-69
2022/07/21 10:25:06;;;;;;;11.48;4.78;;;20.50;99.90;;;;;;4976253;28;20031;-69
2022/07/21 10:27:32;;;;;;;10.20;4.90;;;20.70;99.90;;;;;;4974975;28;20031;-69
2022/07/21 10:30:03;;;;;;;7.25;4.03;;;20.80;99.90;;;;;;4974996;28;20038;-70
2022/07/21 10:32:31;;;;;;;6.75;4.55;;;21.00;99.90;;;;;;4975728;28;20034;-69
2022/07/21 10:35:00;;;;;;;7.80;5.13;;;21.00;99.90;;;;;;4976034;28;20526;-70
2022/07/21 10:37:41;;;;;;;7.22;4.88;;;21.10;99.90;;;;;;4956814;28;20518;-71
2022/07/21 10:40:31;;;;;;;10.32;4.32;;;21.20;99.90;;;;;;4975615;28;20054;-70
2022/07/21 10:43:00;;;;;;;6.80;4.03;;;21.30;99.90;;;;;;4974509;28;20209;-72
2022/07/21 10:45:34;;;;;;;11.93;4.85;;;21.50;99.90;;;;;;4975062;28;20054;-69
2022/07/21 10:48:01;;;;;;;7.88;5.25;;;21.60;99.90;;;;;;4975013;28;20491;-69
2022/07/21 10:50:30;;;;;;;10.40;4.43;;;21.60;99.90;;;;;;4974562;28;20098;-72
2022/07/21 10:52:58;;;;;;;7.80;4.95;;;21.80;99.90;;;;;;4957753;28;20336;-68
2022/07/21 10:55:26;;;;;;;8.15;3.60;;;22.00;99.90;;;;;;4974658;28;20045;-70
2022/07/21 10:58:29;;;;;;;11.93;4.03;;;22.20;99.90;;;;;;4974834;28;20050;-69
2022/07/21 11:01:05;;;;;;;7.80;4.05;;;22.40;99.90;;;;;;4974646;28;20121;-70
2022/07/21 11:03:33;;;;;;;5.50;2.70;;;22.50;99.90;;;;;;4974220;28;20027;-70
2022/07/21 11:06:19;;;;;;;5.55;3.47;;;22.60;99.90;;;;;;4974729;28;20023;-69
2022/07/21 11:09:03;;;;;;;5.55;3.53;;;22.80;99.90;;;;;;4975498;28;20035;-71
2022/07/21 11:11:31;;;;;;;5.10;3.40;;;22.80;99.90;;;;;;4975423;28;21979;-71
2022/07/21 11:14:04;;;;;;;6.63;3.67;;;23.00;99.90;;;;;;4975203;28;20024;-72
2022/07/21 11:16:42;;;;;;;8.05;4.22;;;23.10;99.90;;;;;;4974784;28;20038;-72
2022/07/21 11:19:39;;;;;;;13.52;4.47;;;23.30;99.90;;;;;;4955283;28;20046;-74
2022/07/21 11:22:15;;;;;;;5.97;3.58;;;23.50;99.90;;;;;;4974343;28;20114;-72
2022/07/21 11:24:43;;;;;;;4.85;3.40;;;23.70;99.90;;;;;;4956502;28;20027;-70
2022/07/21 11:27:12;;;;;;;6.78;3.63;;;23.90;99.90;;;;;;4974385;28;20104;-71
2022/07/21 11:29:40;;;;;;;4.75;3.10;;;24.10;99.90;;;;;;4974664;28;20019;-74
2022/07/21 11:32:07;;;;;;;5.43;2.92;;;24.30;99.90;;;;;;4974301;28;20023;-72
2022/07/21 11:34:43;;;;;;;5.80;3.67;;;24.20;99.90;;;;;;4974148;28;20023;-74
2022/07/21 11:37:12;;;;;;;5.10;3.63;;;24.00;99.90;;;;;;4955938;28;20037;-72
2022/07/21 11:39:39;;;;;;;5.20;3.20;;;24.00;99.90;;;;;;4974266;28;20107;-72
2022/07/21 11:42:10;;;;;;;6.15;3.40;;;24.10;99.90;;;;;;4973859;28;20039;-74
2022/07/21 11:44:36;;;;;;;8.30;3.67;;;23.90;99.90;;;;;;4973675;28;20030;-73
2022/07/21 11:47:06;;;;;;;6.75;3.65;;;24.00;99.90;;;;;;4973831;28;20028;-73
2022/07/21 11:49:33;;;;;;;6.70;3.63;;;24.20;99.90;;;;;;4974435;28;20083;-72
2022/07/21 11:52:06;;;;;;;8.45;4.10;;;24.40;99.90;;;;;;4974184;28;20019;-72
2022/07/21 11:54:36;;;;;;;8.50;3.40;;;24.50;99.90;;;;;;4973182;28;20035;-71
2022/07/21 11:57:05;;;;;;;6.32;3.65;;;24.50;99.90;;;;;;4974740;28;20019;-70
2022/07/21 11:59:32;;;;;;;6.72;3.95;;;24.60;99.90;;;;;;4973653;28;20031;-71
2022/07/21 12:02:16;;;;;;;6.18;3.78;;;24.80;99.90;;;;;;4973423;28;20028;-72
2022/07/21 12:04:45;;;;;;;5.68;3.80;;;24.90;99.90;;;;;;4973648;28;20110;-72
2022/07/21 12:07:33;;;;;;;7.38;3.85;;;25.00;99.90;;;;;;4974397;28;20023;-73
2022/07/21 12:10:03;;;;;;;5.05;3.25;;;25.20;99.90;;;;;;4974294;28;20023;-74
2022/07/21 12:12:29;;;;;;;4.78;3.33;;;25.30;99.90;;;;;;4973863;28;20057;-73
2022/07/21 12:14:56;;;;;;;9.10;3.90;;;25.30;99.90;;;;;;4974128;28;20126;-71
2022/07/21 12:17:43;;;;;;;4.75;3.03;;;25.20;99.90;;;;;;4974474;28;20041;-75
2022/07/21 12:20:09;;;;;;;5.72;3.20;;;25.30;99.90;;;;;;4974354;28;20086;-73
2022/07/21 12:22:37;;;;;;;7.32;3.17;;;25.40;99.90;;;;;;4973697;28;20746;-74
2022/07/21 12:25:07;;;;;;;5.82;3.30;;;25.60;99.90;;;;;;4973977;28;20038;-73
2022/07/21 12:27:36;;;;;;;5.32;2.65;;;25.80;99.90;;;;;;4973821;28;20411;-71
2022/07/21 12:30:04;;;;;;;7.00;3.72;;;26.20;99.90;;;;;;4973615;28;20105;-73
2022/07/21 12:32:46;;;;;;;6.72;3.58;;;26.40;99.90;;;;;;4955721;28;20023;-71
2022/07/21 12:35:22;;;;;;;7.65;3.20;;;26.40;99.90;;;;;;4973746;28;20042;-75
2022/07/21 12:37:54;;;;;;;7.47;3.80;;;26.20;99.90;;;;;;4973713;28;20110;-72
2022/07/21 12:40:20;;;;;;;5.20;3.78;;;26.10;99.90;;;;;;4973734;28;20022;-73
2022/07/21 12:42:47;;;;;;;6.00;3.50;;;26.10;99.90;;;;;;4973781;28;20027;-74
2022/07/21 12:45:14;;;;;;;6.55;3.50;;;26.10;99.90;;;;;;4973569;28;20024;-72
2022/07/21 12:47:40;;;;;;;4.95;3.17;;;26.00;99.90;;;;;;4955686;28;20050;-73
2022/07/21 12:50:08;;;;;;;5.70;3.13;;;25.90;99.90;;;;;;4956227;28;20841;-74
2022/07/21 12:52:34;;;;;;;12.18;4.30;;;25.90;99.90;;;;;;4973154;28;20102;-71
2022/07/21 12:55:00;;;;;;;8.13;3.58;;;25.90;99.90;;;;;;4973723;28;20104;-74
2022/07/21 12:57:32;;;;;;;12.63;4.22;;;25.80;99.90;;;;;;4973256;28;20026;-70
2022/07/21 12:59:58;;;;;;;7.60;3.58;;;25.60;99.90;;;;;;4973048;28;20027;-71
2022/07/21 13:02:24;;;;;;;5.63;3.67;;;25.50;99.90;;;;;;4973389;28;20538;-73
2022/07/21 13:04:51;;;;;;;6.88;4.03;;;25.40;99.90;;;;;;4972949;28;20029;-73
2022/07/21 13:07:17;;;;;;;8.73;3.88;;;25.20;99.90;;;;;;4955036;28;20442;-74
2022/07/21 13:09:45;;;;;;;8.63;4.10;;;25.10;99.90;;;;;;4973408;28;20078;-75
2022/07/21 13:12:14;;;;;;;7.93;4.05;;;25.00;99.90;;;;;;4974053;28;20704;-74
2022/07/21 13:14:40;;;;;;;6.43;3.63;;;25.00;99.90;;;;;;4973467;28;20130;-77
2022/07/21 13:17:07;;;;;;;14.27;3.75;;;25.00;99.90;;;;;;4973302;28;20031;-74
2022/07/21 13:19:35;;;;;;;8.65;4.50;;;24.90;99.90;;;;;;4972368;28;20023;-71
2022/07/21 13:22:02;;;;;;;5.25;3.50;;;24.80;99.90;;;;;;4973051;28;20485;-71
2022/07/21 13:24:27;;;;;;;8.05;3.83;;;24.60;99.90;;;;;;4973827;28;20053;-72
2022/07/21 13:26:53;;;;;;;10.75;4.35;;;24.50;99.90;;;;;;4972717;28;20995;-72
2022/07/21 13:29:18;;;;;;;8.05;4.63;;;24.30;99.90;;;;;;4972789;28;20031;-69
2022/07/21 13:31:44;;;;;;;12.10;4.32;;;24.10;99.90;;;;;;4973318;28;20034;-70
2022/07/21 13:34:10;;;;;;;10.27;5.10;;;23.70;99.90;;;;;;4972823;28;20155;-70
2022/07/21 13:36:36;;;;;;;9.27;4.65;;;23.50;99.90;;;;;;4973198;28;20050;-70
2022/07/21 13:39:06;;;;;;;10.90;4.28;;;23.30;99.90;;;;;;4972372;28;20387;-70
2022/07/21 13:41:32;;;;;;;4.63;3.33;;;23.10;99.90;;;;;;4954635;28;20061;-70
2022/07/21 13:43:59;;;;;;;7.03;4.35;;;22.90;99.90;;;;;;4974200;28;20055;-69
2022/07/21 13:46:25;;;;;;;9.18;4.50;;;22.80;99.90;;;;;;4974097;28;20039;-70
2022/07/21 13:48:51;;;;;;;5.75;3.72;;;22.80;99.90;;;;;;4973086;28;20062;-71
2022/07/21 13:51:21;;;;;;;6.30;3.70;;;22.80;99.90;;;;;;4973489;28;20051;-71
2022/07/21 13:53:48;;;;;;;6.70;3.42;;;22.90;99.90;;;;;;4974224;28;20035;-73
2022/07/21 13:56:15;;;;;;;14.93;3.58;;;23.10;99.90;;;;;;4975316;28;20098;-70
2022/07/21 13:58:41;;;;;;;5.85;3.78;;;23.30;99.90;;;;;;4973617;28;20027;-70
2022/07/21 14:01:08;;;;;;;6.35;3.60;;;23.40;99.90;;;;;;4973247;28;20027;-70
2022/07/21 14:03:36;;;;;;;5.32;3.92;;;23.50;99.90;;;;;;4955230;28;20478;-70
2022/07/21 14:06:02;;;;;;;9.38;4.28;;;23.60;99.90;;;;;;4972364;28;20075;-70
2022/07/21 14:08:28;;;;;;;6.82;4.05;;;23.70;99.90;;;;;;4972089;28;20083;-70
2022/07/21 14:10:53;;;;;;;8.13;4.00;;;23.80;99.90;;;;;;4971659;28;20039;-71
2022/07/21 14:13:19;;;;;;;10.43;4.68;;;23.90;99.90;;;;;;4972100;28;20059;-69
2022/07/21 14:15:45;;;;;;;8.82;3.45;;;23.90;99.90;;;;;;4972938;28;20047;-71
2022/07/21 14:18:12;;;;;;;8.63;4.93;;;24.00;99.90;;;;;;4976612;28;20121;-70
2022/07/21 14:20:41;;;;;;;17.50;5.63;;;24.10;99.90;;;;;;4978294;28;20026;-71
2022/07/21 14:23:07;;;;;;;8.07;4.82;;;24.10;99.90;;;;;;4976572;28;20091;-72
2022/07/21 14:25:33;;;;;;;8.88;5.00;;;24.40;99.90;;;;;;4977234;28;20050;-72
2022/07/21 14:27:58;;;;;;;7.80;4.93;;;24.80;99.90;;;;;;4959462;28;20035;-72
2022/07/21 14:30:27;;;;;;;9.20;5.32;;;25.40;99.90;;;;;;4976652;28;20027;-72
2022/07/21 14:32:52;;;;;;;8.00;4.40;;;26.00;99.90;;;;;;4975985;28;20031;-75
2022/07/21 14:35:20;;;;;;;10.27;5.50;;;26.30;99.90;;;;;;4975898;28;20039;-75
2022/07/21 14:37:47;;;;;;;4.93;3.88;;;26.10;99.90;;;;;;4975432;28;20471;-74
2022/07/21 14:40:15;;;;;;;7.35;4.65;;;25.80;99.90;;;;;;4976232;28;20035;-74
2022/07/21 14:42:41;;;;;;;11.43;5.03;;;25.30;99.90;;;;;;4976242;28;20027;-73
2022/07/21 14:45:07;;;;;;;6.75;4.78;;;24.90;99.90;;;;;;4976176;28;20638;-72
2022/07/21 14:47:33;;;;;;;10.75;4.97;;;24.60;99.90;;;;;;4975854;28;20047;-74
2022/07/21 14:49:59;;;;;;;9.15;4.57;;;24.40;99.90;;;;;;4975699;28;20037;-72
2022/07/21 14:52:25;;;;;;;7.03;4.50;;;24.20;99.90;;;;;;4976425;28;20027;-73
2022/07/21 14:54:51;;;;;;;11.57;5.60;;;24.10;99.90;;;;;;4977341;28;20054;-74
2022/07/21 14:57:16;;;;;;;9.05;4.45;;;23.90;99.90;;;;;;4977636;28;20479;-74
2022/07/21 14:59:43;;;;;;;12.93;4.60;;;23.90;99.90;;;;;;4977171;28;20031;-75
2022/07/21 15:02:08;;;;;;;9.30;4.13;;;23.80;99.90;;;;;;4977102;28;20023;-73
2022/07/21 15:04:34;;;;;;;9.93;3.45;;;23.60;99.90;;;;;;4975961;28;22073;-73
2022/07/21 15:07:00;;;;;;;7.80;3.50;;;23.70;99.90;;;;;;4974554;28;20035;-71
2022/07/21 15:09:25;;;;;;;7.07;3.97;;;23.60;99.90;;;;;;4975080;28;20031;-72
2022/07/21 15:11:51;;;;;;;7.55;4.03;;;23.50;99.90;;;;;;4975616;28;20055;-71
2022/07/21 15:14:16;;;;;;;7.63;4.13;;;23.60;99.90;;;;;;4957803;28;20483;-72
2022/07/21 15:16:43;;;;;;;6.05;3.80;;;23.50;99.90;;;;;;4975614;28;20043;-71
2022/07/21 15:19:09;;;;;;;7.97;3.95;;;23.50;99.90;;;;;;4974763;28;20123;-71
2022/07/21 15:21:35;;;;;;;4.90;3.20;;;23.40;99.90;;;;;;4957980;28;20034;-72
2022/07/21 15:24:01;;;;;;;13.10;4.55;;;23.50;99.90;;;;;;4976763;28;20042;-70
2022/07/21 15:26:26;;;;;;;7.13;3.97;;;23.50;99.90;;;;;;4975458;28;20030;-71
2022/07/21 15:28:53;;;;;;;11.73;4.45;;;23.40;99.90;;;;;;4974300;28;20023;-71
2022/07/21 15:31:19;;;;;;;6.80;3.45;;;23.40;99.90;;;;;;4975598;28;20055;-70
2022/07/21 15:33:45;;;;;;;6.82;3.33;;;23.40;99.90;;;;;;4975582;28;20035;-71
2022/07/21 15:36:12;;;;;;;7.55;3.70;;;23.40;99.90;;;;;;4974288;28;20043;-72
2022/07/21 15:38:38;;;;;;;7.68;4.30;;;23.30;99.90;;;;;;4975310;28;20428;-72
2022/07/21 15:41:04;;;;;;;9.73;4.05;;;23.30;99.90;;;;;;4975877;28;20511;-70
2022/07/21 15:43:30;;;;;;;7.75;4.05;;;23.30;99.90;;;;;;4975186;28;20054;-71
2022/07/21 15:45:56;;;;;;;7.05;3.65;;;23.40;99.90;;;;;;4974806;28;20038;-69
2022/07/21 15:48:21;;;;;;;9.23;3.42;;;23.40;99.90;;;;;;4974185;28;20054;-72
2022/07/21 15:50:47;;;;;;;4.38;3.17;;;23.40;99.90;;;;;;4974863;28;20031;-72
2022/07/21 15:53:13;;;;;;;4.47;3.00;;;23.60;99.90;;;;;;4975446;28;20084;-72
2022/07/21 15:55:39;;;;;;;4.47;2.85;;;23.80;99.90;;;;;;4974598;28;20038;-72
2022/07/21 15:58:05;;;;;;;4.82;2.45;;;24.00;99.90;;;;;;4974641;28;20043;-71
2022/07/21 16:00:32;;;;;;;7.18;3.28;;;24.20;99.90;;;;;;4974864;28;20047;-72
2022/07/21 16:02:57;;;;;;;4.20;2.92;;;24.00;99.90;;;;;;4974377;28;20034;-71
2022/07/21 16:05:26;;;;;;;10.20;3.67;;;23.90;99.90;;;;;;4974336;28;20036;-72
2022/07/21 16:07:53;;;;;;;6.10;3.30;;;23.80;99.90;;;;;;4940160;28;20059;-71
2022/07/21 16:10:22;;;;;;;9.88;2.45;;;23.80;99.90;;;;;;4974191;28;20035;-72
2022/07/21 16:12:49;;;;;;;8.48;2.78;;;23.70;99.90;;;;;;4975133;28;20050;-71
2022/07/21 16:15:16;;;;;;;4.85;2.90;;;23.60;99.90;;;;;;4973882;28;20034;-71
2022/07/21 16:17:42;;;;;;;7.32;3.58;;;23.60;99.90;;;;;;4973321;28;20019;-72
2022/07/21 16:20:09;;;;;;;6.95;4.60;;;23.40;99.90;;;;;;4973911;28;20059;-73
2022/07/21 16:22:35;;;;;;;6.20;3.15;;;23.30;99.90;;;;;;4974114;28;20118;-71
2022/07/21 16:25:01;;;;;;;4.30;2.25;;;23.20;99.90;;;;;;4973572;28;20027;-74
2022/07/21 16:27:28;;;;;;;1.10;1.00;;;23.10;99.90;;;;;;4974175;28;20033;-71
2022/07/21 16:29:53;;;;;;;2.67;1.38;;;22.80;99.90;;;;;;4975273;28;20051;-71
2022/07/21 16:32:19;;;;;;;2.03;1.30;;;22.50;99.90;;;;;;4973927;28;20030;-69
2022/07/21 16:34:45;;;;;;;4.28;1.20;;;22.20;99.90;;;;;;4974162;28;20047;-70
2022/07/21 16:37:11;;;;;;;2.10;1.30;;;22.10;99.90;;;;;;4973191;28;20047;-72
2022/07/21 16:39:37;;;;;;;4.22;2.05;;;21.80;99.90;;;;;;4974135;28;20094;-70
2022/07/21 16:42:04;;;;;;;1.25;1.10;;;21.70;99.90;;;;;;4974325;28;20471;-70
2022/07/21 16:44:30;;;;;;;1.65;1.17;;;21.50;99.90;;;;;;4972597;28;20034;-69
2022/07/21 16:46:56;;;;;;;2.88;1.63;;;21.40;99.90;;;;;;4973998;28;20387;-69
2022/07/21 16:49:23;;;;;;;2.17;1.45;;;21.20;99.90;;;;;;4973099;28;20019;-69
2022/07/21 16:51:48;;;;;;;5.40;2.13;;;21.10;99.90;;;;;;4972239;28;20428;-69
2022/07/21 16:54:15;;;;;;;2.53;1.70;;;21.00;99.90;;;;;;4973626;28;20027;-70
2022/07/21 16:56:43;;;;;;;4.03;2.55;;;20.90;99.90;;;;;;4955953;28;20042;-69
2022/07/21 16:59:09;;;;;;;4.45;2.35;;;20.80;99.90;;;;;;4972893;28;20038;-72
2022/07/21 17:01:35;;;;;;;3.67;1.80;;;20.80;99.90;;;;;;4972966;28;20035;-70
2022/07/21 17:04:01;;;;;;;7.97;2.33;;;20.80;99.90;;;;;;4973548;28;20043;-70
2022/07/21 17:06:27;;;;;;;4.13;1.80;;;20.70;99.90;;;;;;4973542;28;20654;-71
2022/07/21 17:08:52;;;;;;;4.45;2.08;;;20.70;99.90;;;;;;4972913;28;20499;-70
2022/07/21 17:11:18;;;;;;;5.00;2.53;;;20.60;99.90;;;;;;4973150;28;20019;-71
2022/07/21 17:13:45;;;;;;;7.05;2.53;;;20.50;99.90;;;;;;4973430;28;20063;-72
2022/07/21 17:16:10;;;;;;;5.70;2.75;;;20.50;99.90;;;;;;4973445;28;20078;-71
2022/07/21 17:18:40;;;;;;;5.70;3.00;;;20.50;99.90;;;;;;4973435;28;20031;-71
2022/07/21 17:21:07;;;;;;;11.75;2.83;;;20.50;99.90;;;;;;4956128;28;20024;-70
2022/07/21 17:23:34;;;;;;;4.53;1.95;;;20.50;99.90;;;;;;4973786;28;20475;-70
2022/07/21 17:25:59;;;;;;;3.95;2.42;;;20.60;99.90;;;;;;4974934;28;21073;-70
2022/07/21 17:28:25;;;;;;;2.85;2.15;;;20.70;99.90;;;;;;4972859;28;20121;-70
2022/07/21 17:30:51;;;;;;;4.25;2.22;;;20.80;99.90;;;;;;4970650;28;20028;-70
2022/07/21 17:33:20;;;;;;;5.50;3.10;;;20.80;99.90;;;;;;4971476;28;20579;-72
2022/07/21 17:35:46;;;;;;;12.35;3.00;;;21.00;99.90;;;;;;4974420;28;20039;-71
2022/07/21 17:38:11;;;;;;;4.47;2.38;;;21.20;99.90;;;;;;4974188;28;20034;-71
2022/07/21 17:40:37;;;;;;;5.10;2.50;;;21.40;99.90;;;;;;4972868;28;20085;-70
2022/07/21 17:43:03;;;;;;;3.88;2.60;;;21.60;99.90;;;;;;4974223;28;20047;-71
2022/07/21 17:45:29;;;;;;;5.47;2.58;;;21.70;99.90;;;;;;4974614;28;20037;-70
2022/07/21 17:47:54;;;;;;;4.47;2.90;;;21.70;99.90;;;;;;4973015;28;20030;-71
2022/07/21 17:50:20;;;;;;;2.45;1.90;;;21.80;99.90;;;;;;4973187;28;20031;-71
2022/07/21 17:52:46;;;;;;;2.90;2.05;;;21.90;99.90;;;;;;4975867;28;20023;-71